sensor_id;sensor_type;location;lat;lon;timestamp;pressure;altitude;pressure_sealevel;temperature
18161;BMP280;9205;52.032;4.314;2023-02-02T00:01:24;102182.16;;;10.12
18161;BMP280;9205;52.032;4.314;2023-02-02T00:03:52;102178.78;;;10.13
18161;BMP280;9205;52.032;4.314;2023-02-02T00:06:23;102182.19;;;10.13
18161;BMP280;9205;52.032;4.314;2023-02-02T00:08:51;102177.91;;;10.11
18161;BMP280;9205;52.032;4.314;2023-02-02T00:11:19;102174.53;;;10.10
18161;BMP280;9205;52.032;4.314;2023-02-02T00:13:47;102183.84;;;10.13
18161;BMP280;9205;52.032;4.314;2023-02-02T00:16:38;102179.63;;;10.14
18161;BMP280;9205;52.032;4.314;2023-02-02T00:19:08;102180.47;;;10.11
18161;BMP280;9205;52.032;4.314;2023-02-02T00:21:36;102179.59;;;10.07
18161;BMP280;9205;52.032;4.314;2023-02-02T00:24:05;102174.56;;;10.09
18161;BMP280;9205;52.032;4.314;2023-02-02T00:26:33;102179.59;;;10.07
18161;BMP280;9205;52.032;4.314;2023-02-02T00:29:02;102186.38;;;10.07
18161;BMP280;9205;52.032;4.314;2023-02-02T00:31:29;102188.06;;;10.05
18161;BMP280;9205;52.032;4.314;2023-02-02T00:33:57;102197.41;;;10.04
18161;BMP280;9205;52.032;4.314;2023-02-02T00:36:25;102201.66;;;10.10
18161;BMP280;9205;52.032;4.314;2023-02-02T00:38:52;102193.16;;;10.08
18161;BMP280;9205;52.032;4.314;2023-02-02T00:41:19;102192.31;;;10.07
18161;BMP280;9205;52.032;4.314;2023-02-02T00:43:48;102186.38;;;10.08
18161;BMP280;9205;52.032;4.314;2023-02-02T00:46:40;102188.94;;;10.18
18161;BMP280;9205;52.032;4.314;2023-02-02T00:49:07;102188.94;;;10.10
18161;BMP280;9205;52.032;4.314;2023-02-02T00:51:35;102196.56;;;10.10
18161;BMP280;9205;52.032;4.314;2023-02-02T00:54:02;102190.63;;;10.13
18161;BMP280;9205;52.032;4.314;2023-02-02T00:56:30;102187.25;;;10.09
18161;BMP280;9205;52.032;4.314;2023-02-02T00:58:57;102188.06;;;10.11
18161;BMP280;9205;52.032;4.314;2023-02-02T01:01:24;102189.78;;;10.12
18161;BMP280;9205;52.032;4.314;2023-02-02T01:03:53;102198.25;;;10.13
18161;BMP280;9205;52.032;4.314;2023-02-02T01:06:20;102194.00;;;10.13
18161;BMP280;9205;52.032;4.314;2023-02-02T01:08:47;102189.78;;;10.12
18161;BMP280;9205;52.032;4.314;2023-02-02T01:11:15;102192.31;;;10.10
18161;BMP280;9205;52.032;4.314;2023-02-02T01:13:43;102190.63;;;10.11
18161;BMP280;9205;52.032;4.314;2023-02-02T01:16:10;102188.94;;;10.10
18161;BMP280;9205;52.032;4.314;2023-02-02T01:18:39;102186.38;;;10.08
18161;BMP280;9205;52.032;4.314;2023-02-02T01:21:10;102178.78;;;10.05
18161;BMP280;9205;52.032;4.314;2023-02-02T01:23:38;102178.75;;;10.04
18161;BMP280;9205;52.032;4.314;2023-02-02T01:26:08;102177.06;;;10.01
18161;BMP280;9205;52.032;4.314;2023-02-02T01:28:37;102171.13;;;10.04
18161;BMP280;9205;52.032;4.314;2023-02-02T01:31:07;102188.94;;;10.07
18161;BMP280;9205;52.032;4.314;2023-02-02T01:33:35;102182.16;;;10.07
18161;BMP280;9205;52.032;4.314;2023-02-02T01:36:05;102182.16;;;10.06
18161;BMP280;9205;52.032;4.314;2023-02-02T01:38:34;102188.06;;;10.06
18161;BMP280;9205;52.032;4.314;2023-02-02T01:41:02;102194.03;;;10.10
18161;BMP280;9205;52.032;4.314;2023-02-02T01:43:52;102203.31;;;10.06
18161;BMP280;9205;52.032;4.314;2023-02-02T01:46:23;102188.09;;;10.09
18161;BMP280;9205;52.032;4.314;2023-02-02T01:48:58;102193.16;;;10.03
18161;BMP280;9205;52.032;4.314;2023-02-02T01:51:35;102196.56;;;10.05
18161;BMP280;9205;52.032;4.314;2023-02-02T01:54:14;102177.09;;;10.04
18161;BMP280;9205;52.032;4.314;2023-02-02T01:56:51;102186.38;;;10.02
18161;BMP280;9205;52.032;4.314;2023-02-02T01:59:20;102189.78;;;10.00
18161;BMP280;9205;52.032;4.314;2023-02-02T02:01:49;102194.84;;;10.04
18161;BMP280;9205;52.032;4.314;2023-02-02T02:04:21;102193.16;;;10.06
18161;BMP280;9205;52.032;4.314;2023-02-02T02:06:49;102198.25;;;10.08
18161;BMP280;9205;52.032;4.314;2023-02-02T02:09:21;102195.69;;;10.11
18161;BMP280;9205;52.032;4.314;2023-02-02T02:11:48;102199.09;;;10.10
18161;BMP280;9205;52.032;4.314;2023-02-02T02:14:15;102195.69;;;10.11
18161;BMP280;9205;52.032;4.314;2023-02-02T02:17:18;102194.00;;;10.13
18161;BMP280;9205;52.032;4.314;2023-02-02T02:20:43;102187.25;;;10.13
18161;BMP280;9205;52.032;4.314;2023-02-02T02:31:55;102175.38;;;10.02
18161;BMP280;9205;52.032;4.314;2023-02-02T02:34:45;102178.75;;;10.02
18161;BMP280;9205;52.032;4.314;2023-02-02T02:37:24;102171.97;;;10.03
18161;BMP280;9205;52.032;4.314;2023-02-02T02:40:03;102182.16;;;10.04
18161;BMP280;9205;52.032;4.314;2023-02-02T02:42:38;102184.69;;;10.01
18161;BMP280;9205;52.032;4.314;2023-02-02T02:45:09;102190.63;;;10.03
18161;BMP280;9205;52.032;4.314;2023-02-02T02:47:40;102182.16;;;10.04
18161;BMP280;9205;52.032;4.314;2023-02-02T02:50:09;102188.06;;;10.11
18161;BMP280;9205;52.032;4.314;2023-02-02T02:52:39;102188.06;;;10.03
18161;BMP280;9205;52.032;4.314;2023-02-02T02:55:09;102181.31;;;10.08
18161;BMP280;9205;52.032;4.314;2023-02-02T02:57:57;102161.81;;;10.03
18161;BMP280;9205;52.032;4.314;2023-02-02T03:00:46;102181.31;;;10.02
18161;BMP280;9205;52.032;4.314;2023-02-02T03:03:42;102185.53;;;10.05
18161;BMP280;9205;52.032;4.314;2023-02-02T03:06:20;102172.00;;;9.98
18161;BMP280;9205;52.032;4.314;2023-02-02T03:08:54;102178.75;;;10.04
18161;BMP280;9205;52.032;4.314;2023-02-02T03:11:23;102177.06;;;10.06
18161;BMP280;9205;52.032;4.314;2023-02-02T03:13:50;102178.78;;;10.01
18161;BMP280;9205;52.032;4.314;2023-02-02T03:16:18;102180.47;;;10.03
18161;BMP280;9205;52.032;4.314;2023-02-02T03:18:46;102166.09;;;10.05
18161;BMP280;9205;52.032;4.314;2023-02-02T03:21:13;102171.97;;;10.03
18161;BMP280;9205;52.032;4.314;2023-02-02T03:23:41;102183.84;;;10.04
18161;BMP280;9205;52.032;4.314;2023-02-02T03:26:08;102188.06;;;10.00
18161;BMP280;9205;52.032;4.314;2023-02-02T03:28:36;102197.41;;;10.04
18161;BMP280;9205;52.032;4.314;2023-02-02T03:31:03;102189.75;;;10.03
18161;BMP280;9205;52.032;4.314;2023-02-02T03:33:34;102191.47;;;10.05
18161;BMP280;9205;52.032;4.314;2023-02-02T03:36:05;102192.31;;;10.09
18161;BMP280;9205;52.032;4.314;2023-02-02T03:38:32;102183.84;;;10.08
18161;BMP280;9205;52.032;4.314;2023-02-02T03:40:59;102195.69;;;10.05
18161;BMP280;9205;52.032;4.314;2023-02-02T03:43:27;102204.16;;;10.07
18161;BMP280;9205;52.032;4.314;2023-02-02T03:45:58;102203.31;;;10.05
18161;BMP280;9205;52.032;4.314;2023-02-02T03:48:27;102197.38;;;10.06
18161;BMP280;9205;52.032;4.314;2023-02-02T03:50:54;102202.50;;;10.09
18161;BMP280;9205;52.032;4.314;2023-02-02T03:53:23;102210.94;;;10.05
18161;BMP280;9205;52.032;4.314;2023-02-02T03:55:50;102210.94;;;10.08
18161;BMP280;9205;52.032;4.314;2023-02-02T03:58:17;102211.78;;;10.11
18161;BMP280;9205;52.032;4.314;2023-02-02T04:00:47;102207.56;;;10.09
18161;BMP280;9205;52.032;4.314;2023-02-02T04:03:14;102211.78;;;10.05
18161;BMP280;9205;52.032;4.314;2023-02-02T04:05:41;102199.09;;;10.07
18161;BMP280;9205;52.032;4.314;2023-02-02T04:08:08;102209.25;;;10.10
18161;BMP280;9205;52.032;4.314;2023-02-02T04:10:37;102197.41;;;10.13
18161;BMP280;9205;52.032;4.314;2023-02-02T04:13:07;102209.25;;;10.10
18161;BMP280;9205;52.032;4.314;2023-02-02T04:15:34;102209.25;;;10.10
18161;BMP280;9205;52.032;4.314;2023-02-02T04:18:01;102200.78;;;10.11
18161;BMP280;9205;52.032;4.314;2023-02-02T04:20:29;102204.16;;;10.13
18161;BMP280;9205;52.032;4.314;2023-02-02T04:22:56;102201.66;;;10.15
18161;BMP280;9205;52.032;4.314;2023-02-02T04:25:23;102203.31;;;10.11
18161;BMP280;9205;52.032;4.314;2023-02-02T04:27:52;102204.19;;;10.15
18161;BMP280;9205;52.032;4.314;2023-02-02T04:30:19;102201.63;;;10.11
18161;BMP280;9205;52.032;4.314;2023-02-02T04:32:47;102213.47;;;10.11
18161;BMP280;9205;52.032;4.314;2023-02-02T04:35:14;102219.41;;;10.11
18161;BMP280;9205;52.032;4.314;2023-02-02T04:37:41;102221.09;;;10.09
18161;BMP280;9205;52.032;4.314;2023-02-02T04:40:10;102220.25;;;10.12
18161;BMP280;9205;52.032;4.314;2023-02-02T04:42:38;102223.63;;;10.11
18161;BMP280;9205;52.032;4.314;2023-02-02T04:45:08;102234.66;;;10.10
18161;BMP280;9205;52.032;4.314;2023-02-02T04:47:35;102229.59;;;10.10
18161;BMP280;9205;52.032;4.314;2023-02-02T04:50:03;102217.72;;;10.12
18161;BMP280;9205;52.032;4.314;2023-02-02T04:52:30;102216.88;;;10.11
18161;BMP280;9205;52.032;4.314;2023-02-02T04:54:57;102209.25;;;10.13
18161;BMP280;9205;52.032;4.314;2023-02-02T04:57:25;102227.03;;;10.10
18161;BMP280;9205;52.032;4.314;2023-02-02T04:59:52;102216.88;;;10.11
18161;BMP280;9205;52.032;4.314;2023-02-02T05:02:20;102213.47;;;10.11
18161;BMP280;9205;52.032;4.314;2023-02-02T05:04:48;102206.72;;;10.13
18161;BMP280;9205;52.032;4.314;2023-02-02T05:07:15;102222.78;;;10.12
18161;BMP280;9205;52.032;4.314;2023-02-02T05:09:42;102221.09;;;10.11
18161;BMP280;9205;52.032;4.314;2023-02-02T05:12:10;102214.31;;;10.13
18161;BMP280;9205;52.032;4.314;2023-02-02T05:14:37;102216.00;;;10.11
18161;BMP280;9205;52.032;4.314;2023-02-02T05:17:04;102219.41;;;10.13
18161;BMP280;9205;52.032;4.314;2023-02-02T05:19:32;102230.41;;;10.09
18161;BMP280;9205;52.032;4.314;2023-02-02T05:22:00;102218.53;;;10.05
18161;BMP280;9205;52.032;4.314;2023-02-02T05:24:27;102212.63;;;10.09
18161;BMP280;9205;52.032;4.314;2023-02-02T05:26:54;102227.03;;;10.07
18161;BMP280;9205;52.032;4.314;2023-02-02T05:29:25;102227.03;;;10.07
18161;BMP280;9205;52.032;4.314;2023-02-02T05:31:53;102219.41;;;10.11
18161;BMP280;9205;52.032;4.314;2023-02-02T05:34:20;102225.31;;;10.12
18161;BMP280;9205;52.032;4.314;2023-02-02T05:36:49;102227.00;;;10.08
18161;BMP280;9205;52.032;4.314;2023-02-02T05:39:16;102232.97;;;10.09
18161;BMP280;9205;52.032;4.314;2023-02-02T05:41:43;102238.03;;;10.09
18161;BMP280;9205;52.032;4.314;2023-02-02T05:44:12;102222.78;;;10.06
18161;BMP280;9205;52.032;4.314;2023-02-02T05:46:40;102228.72;;;10.02
18161;BMP280;9205;52.032;4.314;2023-02-02T05:49:11;102239.69;;;10.02
18161;BMP280;9205;52.032;4.314;2023-02-02T05:51:44;102235.47;;;10.06
18161;BMP280;9205;52.032;4.314;2023-02-02T05:54:13;102232.09;;;10.05
18161;BMP280;9205;52.032;4.314;2023-02-02T05:56:45;102242.25;;;10.05
18161;BMP280;9205;52.032;4.314;2023-02-02T05:59:13;102241.41;;;10.02
18161;BMP280;9205;52.032;4.314;2023-02-02T06:01:40;102238.84;;;10.06
18161;BMP280;9205;52.032;4.314;2023-02-02T06:04:07;102246.50;;;10.08
18161;BMP280;9205;52.032;4.314;2023-02-02T06:06:34;102244.81;;;10.10
18161;BMP280;9205;52.032;4.314;2023-02-02T06:09:04;102243.13;;;10.09
18161;BMP280;9205;52.032;4.314;2023-02-02T06:11:33;102244.81;;;10.05
18161;BMP280;9205;52.032;4.314;2023-02-02T06:14:00;102245.63;;;10.07
18161;BMP280;9205;52.032;4.314;2023-02-02T06:16:27;102248.19;;;10.04
18161;BMP280;9205;52.032;4.314;2023-02-02T06:18:55;102248.19;;;10.04
18161;BMP280;9205;52.032;4.314;2023-02-02T06:21:23;102249.88;;;10.02
18161;BMP280;9205;52.032;4.314;2023-02-02T06:23:50;102265.94;;;10.06
18161;BMP280;9205;52.032;4.314;2023-02-02T06:26:18;102271.91;;;10.08
18161;BMP280;9205;52.032;4.314;2023-02-02T06:28:51;102277.81;;;10.08
18161;BMP280;9205;52.032;4.314;2023-02-02T06:31:19;102282.88;;;10.01
18161;BMP280;9205;52.032;4.314;2023-02-02T06:33:52;102292.19;;;10.05
18161;BMP280;9205;52.032;4.314;2023-02-02T06:36:20;102298.97;;;10.07
18161;BMP280;9205;52.032;4.314;2023-02-02T06:38:48;102287.97;;;10.11
18161;BMP280;9205;52.032;4.314;2023-02-02T06:41:16;102280.34;;;10.05
18161;BMP280;9205;52.032;4.314;2023-02-02T06:43:43;102286.28;;;10.12
18161;BMP280;9205;52.032;4.314;2023-02-02T06:46:12;102279.47;;;10.06
18161;BMP280;9205;52.032;4.314;2023-02-02T06:48:40;102275.28;;;10.07
18161;BMP280;9205;52.032;4.314;2023-02-02T06:51:07;102270.19;;;10.07
18161;BMP280;9205;52.032;4.314;2023-02-02T06:53:35;102265.09;;;10.04
18161;BMP280;9205;52.032;4.314;2023-02-02T06:56:05;102267.63;;;10.01
18161;BMP280;9205;52.032;4.314;2023-02-02T06:58:33;102271.88;;;10.05
18161;BMP280;9205;52.032;4.314;2023-02-02T07:01:02;102266.78;;;10.00
18161;BMP280;9205;52.032;4.314;2023-02-02T07:03:32;102276.13;;;10.04
18161;BMP280;9205;52.032;4.314;2023-02-02T07:06:14;102294.72;;;10.05
18161;BMP280;9205;52.032;4.314;2023-02-02T07:08:42;102284.53;;;9.97
18161;BMP280;9205;52.032;4.314;2023-02-02T07:11:10;102281.97;;;9.96
18161;BMP280;9205;52.032;4.314;2023-02-02T07:13:38;102293.81;;;9.94
18161;BMP280;9205;52.032;4.314;2023-02-02T07:16:06;102295.50;;;9.95
18161;BMP280;9205;52.032;4.314;2023-02-02T07:18:35;102308.22;;;9.96
18161;BMP280;9205;52.032;4.314;2023-02-02T07:21:03;102302.28;;;9.96
18161;BMP280;9205;52.032;4.314;2023-02-02T07:23:32;102306.50;;;9.94
18161;BMP280;9205;52.032;4.314;2023-02-02T07:26:01;102325.19;;;9.99
18161;BMP280;9205;52.032;4.314;2023-02-02T07:28:29;102320.06;;;9.93
18161;BMP280;9205;52.032;4.314;2023-02-02T07:30:56;102318.31;;;9.89
18161;BMP280;9205;52.032;4.314;2023-02-02T07:33:23;102319.19;;;9.89
18161;BMP280;9205;52.032;4.314;2023-02-02T07:35:52;102336.09;;;9.89
18161;BMP280;9205;52.032;4.314;2023-02-02T07:38:19;102337.75;;;9.87
18161;BMP280;9205;52.032;4.314;2023-02-02T07:40:47;102339.44;;;9.82
18161;BMP280;9205;52.032;4.314;2023-02-02T07:43:14;102342.00;;;9.85
18161;BMP280;9205;52.032;4.314;2023-02-02T07:45:41;102346.25;;;9.87
18161;BMP280;9205;52.032;4.314;2023-02-02T07:48:09;102354.72;;;9.85
18161;BMP280;9205;52.032;4.314;2023-02-02T07:50:36;102340.34;;;9.90
18161;BMP280;9205;52.032;4.314;2023-02-02T07:53:04;102350.47;;;9.85
18161;BMP280;9205;52.032;4.314;2023-02-02T07:55:32;102351.31;;;9.89
18161;BMP280;9205;52.032;4.314;2023-02-02T07:57:59;102356.38;;;9.84
18161;BMP280;9205;52.032;4.314;2023-02-02T08:00:30;102357.25;;;9.85
18161;BMP280;9205;52.032;4.314;2023-02-02T08:02:57;102351.31;;;9.87
18161;BMP280;9205;52.032;4.314;2023-02-02T08:05:24;102356.41;;;9.89
18161;BMP280;9205;52.032;4.314;2023-02-02T08:07:52;102359.81;;;9.91
18161;BMP280;9205;52.032;4.314;2023-02-02T08:10:20;102354.75;;;9.97
18161;BMP280;9205;52.032;4.314;2023-02-02T08:12:47;102361.53;;;9.96
18161;BMP280;9205;52.032;4.314;2023-02-02T08:15:15;102363.22;;;9.93
18161;BMP280;9205;52.032;4.314;2023-02-02T08:17:44;102370.00;;;9.94
18161;BMP280;9205;52.032;4.314;2023-02-02T08:20:15;102373.38;;;9.97
18161;BMP280;9205;52.032;4.314;2023-02-02T08:22:42;102370.88;;;9.99
18161;BMP280;9205;52.032;4.314;2023-02-02T08:25:09;102370.91;;;10.03
18161;BMP280;9205;52.032;4.314;2023-02-02T08:27:38;102374.28;;;10.02
18161;BMP280;9205;52.032;4.314;2023-02-02T08:30:06;102366.66;;;10.01
18161;BMP280;9205;52.032;4.314;2023-02-02T08:32:34;102375.13;;;10.03
18161;BMP280;9205;52.032;4.314;2023-02-02T08:35:01;102373.44;;;10.05
18161;BMP280;9205;52.032;4.314;2023-02-02T08:37:29;102386.16;;;10.02
18161;BMP280;9205;52.032;4.314;2023-02-02T08:39:56;102376.84;;;10.07
18161;BMP280;9205;52.032;4.314;2023-02-02T08:42:23;102385.31;;;10.10
18161;BMP280;9205;52.032;4.314;2023-02-02T08:44:52;102379.44;;;10.18
18161;BMP280;9205;52.032;4.314;2023-02-02T08:47:19;102392.13;;;10.15
18161;BMP280;9205;52.032;4.314;2023-02-02T08:49:46;102387.06;;;10.18
18161;BMP280;9205;52.032;4.314;2023-02-02T08:52:14;102388.75;;;10.19
18161;BMP280;9205;52.032;4.314;2023-02-02T08:54:41;102387.06;;;10.21
18161;BMP280;9205;52.032;4.314;2023-02-02T08:57:08;102395.53;;;10.19
18161;BMP280;9205;52.032;4.314;2023-02-02T08:59:35;102398.03;;;10.16
18161;BMP280;9205;52.032;4.314;2023-02-02T09:02:08;102398.06;;;10.19
18161;BMP280;9205;52.032;4.314;2023-02-02T09:04:38;102402.31;;;10.21
18161;BMP280;9205;52.032;4.314;2023-02-02T09:07:07;102404.81;;;10.18
18161;BMP280;9205;52.032;4.314;2023-02-02T09:09:34;102414.16;;;10.16
18161;BMP280;9205;52.032;4.314;2023-02-02T09:12:01;102406.53;;;10.19
18161;BMP280;9205;52.032;4.314;2023-02-02T09:14:29;102413.31;;;10.20
18161;BMP280;9205;52.032;4.314;2023-02-02T09:16:56;102418.41;;;10.25
18161;BMP280;9205;52.032;4.314;2023-02-02T09:19:25;102411.69;;;10.31
18161;BMP280;9205;52.032;4.314;2023-02-02T09:21:54;102426.09;;;10.32
18161;BMP280;9205;52.032;4.314;2023-02-02T09:24:21;102419.31;;;10.36
18161;BMP280;9205;52.032;4.314;2023-02-02T09:26:49;102412.56;;;10.39
18161;BMP280;9205;52.032;4.314;2023-02-02T09:29:16;102423.56;;;10.46
18161;BMP280;9205;52.032;4.314;2023-02-02T09:31:44;102423.59;;;10.56
18161;BMP280;9205;52.032;4.314;2023-02-02T09:34:13;102424.50;;;10.60
18161;BMP280;9205;52.032;4.314;2023-02-02T09:36:44;102410.94;;;10.65
18161;BMP280;9205;52.032;4.314;2023-02-02T09:39:12;102413.47;;;10.62
18161;BMP280;9205;52.032;4.314;2023-02-02T09:42:16;102407.56;;;10.63
18161;BMP280;9205;52.032;4.314;2023-02-02T09:44:58;102417.72;;;10.63
18161;BMP280;9205;52.032;4.314;2023-02-02T09:47:42;102414.31;;;10.64
18161;BMP280;9205;52.032;4.314;2023-02-02T09:50:21;102420.25;;;10.62
18161;BMP280;9205;52.032;4.314;2023-02-02T09:52:58;102410.09;;;10.63
18161;BMP280;9205;52.032;4.314;2023-02-02T09:55:34;102406.72;;;10.66
18161;BMP280;9205;52.032;4.314;2023-02-02T09:58:12;102425.34;;;10.71
18161;BMP280;9205;52.032;4.314;2023-02-02T10:00:46;102426.22;;;10.71
18161;BMP280;9205;52.032;4.314;2023-02-02T10:03:23;102432.13;;;10.67
18161;BMP280;9205;52.032;4.314;2023-02-02T10:06:02;102430.41;;;10.60
18161;BMP280;9205;52.032;4.314;2023-02-02T10:08:40;102434.66;;;10.64
18161;BMP280;9205;52.032;4.314;2023-02-02T10:11:30;102435.53;;;10.63
18161;BMP280;9205;52.032;4.314;2023-02-02T10:14:05;102441.44;;;10.68
18161;BMP280;9205;52.032;4.314;2023-02-02T10:16:35;102428.75;;;10.73
18161;BMP280;9205;52.032;4.314;2023-02-02T10:19:09;102435.53;;;10.75
18161;BMP280;9205;52.032;4.314;2023-02-02T10:21:45;102434.72;;;10.81
18161;BMP280;9205;52.032;4.314;2023-02-02T10:24:21;102427.06;;;10.84
18161;BMP280;9205;52.032;4.314;2023-02-02T10:26:53;102432.16;;;10.84
18161;BMP280;9205;52.032;4.314;2023-02-02T10:29:32;102435.59;;;10.89
18161;BMP280;9205;52.032;4.314;2023-02-02T10:32:12;102450.00;;;10.91
18161;BMP280;9205;52.032;4.314;2023-02-02T10:35:02;102452.53;;;10.91
18161;BMP280;9205;52.032;4.314;2023-02-02T10:37:37;102452.56;;;10.94
18161;BMP280;9205;52.032;4.314;2023-02-02T10:40:21;102459.34;;;10.96
18161;BMP280;9205;52.032;4.314;2023-02-02T10:43:24;102453.38;;;10.90
18161;BMP280;9205;52.032;4.314;2023-02-02T10:46:19;102452.56;;;10.94
18161;BMP280;9205;52.032;4.314;2023-02-02T10:48:49;102453.38;;;10.96
18161;BMP280;9205;52.032;4.314;2023-02-02T10:51:22;102464.44;;;11.07
18161;BMP280;9205;52.032;4.314;2023-02-02T10:53:53;102465.28;;;11.06
18161;BMP280;9205;52.032;4.314;2023-02-02T10:56:30;102459.34;;;11.07
18161;BMP280;9205;52.032;4.314;2023-02-02T10:59:06;102455.09;;;11.06
18161;BMP280;9205;52.032;4.314;2023-02-02T11:01:36;102450.03;;;11.12
18161;BMP280;9205;52.032;4.314;2023-02-02T11:04:03;102449.19;;;11.11
18161;BMP280;9205;52.032;4.314;2023-02-02T11:06:48;102453.41;;;11.09
18161;BMP280;9205;52.032;4.314;2023-02-02T11:09:19;102455.09;;;11.03
18161;BMP280;9205;52.032;4.314;2023-02-02T11:11:53;102452.56;;;11.01
18161;BMP280;9205;52.032;4.314;2023-02-02T11:14:32;102455.09;;;11.07
18161;BMP280;9205;52.032;4.314;2023-02-02T11:17:04;102465.28;;;11.12
18161;BMP280;9205;52.032;4.314;2023-02-02T11:19:34;102459.34;;;11.04
18161;BMP280;9205;52.032;4.314;2023-02-02T11:22:03;102455.97;;;11.02
18161;BMP280;9205;52.032;4.314;2023-02-02T11:24:40;102467.81;;;11.06
18161;BMP280;9205;52.032;4.314;2023-02-02T11:27:17;102466.97;;;11.04
18161;BMP280;9205;52.032;4.314;2023-02-02T11:29:47;102470.34;;;11.03
18161;BMP280;9205;52.032;4.314;2023-02-02T11:32:26;102476.31;;;10.97
18161;BMP280;9205;52.032;4.314;2023-02-02T11:35:17;102466.94;;;10.93
18161;BMP280;9205;52.032;4.314;2023-02-02T11:38:08;102463.53;;;10.87
18161;BMP280;9205;52.032;4.314;2023-02-02T11:40:38;102472.00;;;10.85
18161;BMP280;9205;52.032;4.314;2023-02-02T11:43:18;102464.41;;;10.88
18161;BMP280;9205;52.032;4.314;2023-02-02T11:45:52;102459.28;;;10.85
18161;BMP280;9205;52.032;4.314;2023-02-02T11:48:27;102467.75;;;10.82
18161;BMP280;9205;52.032;4.314;2023-02-02T11:50:57;102479.63;;;10.83
18161;BMP280;9205;52.032;4.314;2023-02-02T11:53:28;102472.00;;;10.80
18161;BMP280;9205;52.032;4.314;2023-02-02T11:56:01;102455.06;;;10.85
18161;BMP280;9205;52.032;4.314;2023-02-02T11:58:43;102449.13;;;10.85
18161;BMP280;9205;52.032;4.314;2023-02-02T12:01:24;102456.78;;;10.88
18161;BMP280;9205;52.032;4.314;2023-02-02T12:03:55;102455.91;;;10.86
18161;BMP280;9205;52.032;4.314;2023-02-02T12:06:24;102465.22;;;10.82
18161;BMP280;9205;52.032;4.314;2023-02-02T12:08:56;102458.44;;;10.84
18161;BMP280;9205;52.032;4.314;2023-02-02T12:11:36;102459.25;;;10.76
18161;BMP280;9205;52.032;4.314;2023-02-02T12:14:25;102455.88;;;10.75
18161;BMP280;9205;52.032;4.314;2023-02-02T12:17:17;102455.03;;;10.73
18161;BMP280;9205;52.032;4.314;2023-02-02T12:20:25;102454.16;;;10.70
18161;BMP280;9205;52.032;4.314;2023-02-02T12:23:18;102462.63;;;10.61
18161;BMP280;9205;52.032;4.314;2023-02-02T12:26:18;102461.72;;;10.56
18161;BMP280;9205;52.032;4.314;2023-02-02T12:29:25;102459.13;;;10.41
18161;BMP280;9205;52.032;4.314;2023-02-02T12:32:13;102475.22;;;10.37
18161;BMP280;9205;52.032;4.314;2023-02-02T12:34:57;102465.88;;;10.32
18161;BMP280;9205;52.032;4.314;2023-02-02T12:37:43;102470.94;;;10.24
18161;BMP280;9205;52.032;4.314;2023-02-02T12:40:31;102470.91;;;10.21
18161;BMP280;9205;52.032;4.314;2023-02-02T12:43:20;102470.06;;;10.22
18161;BMP280;9205;52.032;4.314;2023-02-02T12:46:06;102459.88;;;10.19
18161;BMP280;9205;52.032;4.314;2023-02-02T12:49:12;102458.16;;;10.18
18161;BMP280;9205;52.032;4.314;2023-02-02T12:52:07;102453.03;;;10.07
18161;BMP280;9205;52.032;4.314;2023-02-02T12:55:04;102449.63;;;10.02
18161;BMP280;9205;52.032;4.314;2023-02-02T12:57:49;102443.72;;;10.04
18161;BMP280;9205;52.032;4.314;2023-02-02T13:00:49;102449.63;;;10.02
18161;BMP280;9205;52.032;4.314;2023-02-02T13:03:35;102443.69;;;10.00
18161;BMP280;9205;52.032;4.314;2023-02-02T13:06:32;102441.88;;;9.90
18161;BMP280;9205;52.032;4.314;2023-02-02T13:09:08;102443.56;;;9.86
18161;BMP280;9205;52.032;4.314;2023-02-02T13:11:43;102440.16;;;9.83
18161;BMP280;9205;52.032;4.314;2023-02-02T13:14:24;102437.63;;;9.84
18161;BMP280;9205;52.032;4.314;2023-02-02T13:16:57;102443.56;;;9.88
18161;BMP280;9205;52.032;4.314;2023-02-02T13:19:33;102429.16;;;9.84
18161;BMP280;9205;52.032;4.314;2023-02-02T13:22:03;102443.53;;;9.83
18161;BMP280;9205;52.032;4.314;2023-02-02T13:24:36;102442.66;;;9.80
18161;BMP280;9205;52.032;4.314;2023-02-02T13:27:10;102452.00;;;9.82
18161;BMP280;9205;52.032;4.314;2023-02-02T13:29:44;102447.69;;;9.75
18161;BMP280;9205;52.032;4.314;2023-02-02T13:32:23;102447.69;;;9.74
18161;BMP280;9205;52.032;4.314;2023-02-02T13:34:58;102440.09;;;9.72
18161;BMP280;9205;52.032;4.314;2023-02-02T13:37:34;102441.75;;;9.70
18161;BMP280;9205;52.032;4.314;2023-02-02T13:40:24;102443.47;;;9.71
18161;BMP280;9205;52.032;4.314;2023-02-02T13:43:04;102435.81;;;9.68
18161;BMP280;9205;52.032;4.314;2023-02-02T13:45:44;102442.63;;;9.71
18161;BMP280;9205;52.032;4.314;2023-02-02T13:48:23;102447.69;;;9.74
18161;BMP280;9205;52.032;4.314;2023-02-02T13:51:34;102436.72;;;9.76
18161;BMP280;9205;52.032;4.314;2023-02-02T13:57:57;102437.59;;;9.78
18161;BMP280;9205;52.032;4.314;2023-02-02T14:00:30;102439.25;;;9.75
18161;BMP280;9205;52.032;4.314;2023-02-02T14:03:02;102447.69;;;9.75
18161;BMP280;9205;52.032;4.314;2023-02-02T14:05:34;102440.09;;;9.75
18161;BMP280;9205;52.032;4.314;2023-02-02T14:08:07;102446.91;;;9.79
18161;BMP280;9205;52.032;4.314;2023-02-02T14:10:55;102450.31;;;9.83
18161;BMP280;9205;52.032;4.314;2023-02-02T14:13:26;102452.81;;;9.80
18161;BMP280;9205;52.032;4.314;2023-02-02T14:16:21;102455.41;;;9.87
18161;BMP280;9205;52.032;4.314;2023-02-02T14:18:54;102446.97;;;9.90
18161;BMP280;9205;52.032;4.314;2023-02-02T14:24:48;102452.91;;;9.92
18161;BMP280;9205;52.032;4.314;2023-02-02T14:27:54;102461.41;;;9.97
18161;BMP280;9205;52.032;4.314;2023-02-02T14:30:27;102462.22;;;9.94
18161;BMP280;9205;52.032;4.314;2023-02-02T14:33:38;102469.84;;;9.93
18161;BMP280;9205;52.032;4.314;2023-02-02T14:36:15;102463.06;;;9.95
18161;BMP280;9205;52.032;4.314;2023-02-02T14:39:18;102473.31;;;10.01
18161;BMP280;9205;52.032;4.314;2023-02-02T14:42:09;102469.94;;;10.02
18161;BMP280;9205;52.032;4.314;2023-02-02T14:45:19;102475.03;;;10.05
18161;BMP280;9205;52.032;4.314;2023-02-02T14:47:51;102468.28;;;10.07
18161;BMP280;9205;52.032;4.314;2023-02-02T14:50:27;102479.28;;;10.12
18161;BMP280;9205;52.032;4.314;2023-02-02T14:53:02;102470.81;;;10.08
18161;BMP280;9205;52.032;4.314;2023-02-02T14:55:31;102483.56;;;10.15
18161;BMP280;9205;52.032;4.314;2023-02-02T14:58:02;102471.72;;;10.16
18161;BMP280;9205;52.032;4.314;2023-02-02T15:00:33;102465.75;;;10.11
18161;BMP280;9205;52.032;4.314;2023-02-02T15:03:32;102468.34;;;10.15